Time;durP1;ratioP1;P1;durP2;ratioP2;P2;SDS_P1;SDS_P2;PMS_P1;PMS_P2;Temp;Humidity;BMP_temperature;BMP_pressure;BME280_temperature;BME280_humidity;BME280_pressure;Samples;Min_cycle;Max_cycle;Signal;HPM_P1;HPM_P2
2021/04/30 04:49:35;;;;;;;11.50;6.63;;;;;;;4.36;67.71;97692.09;5524470;23;20045;-51
2021/04/30 04:52:01;;;;;;;12.38;7.75;;;;;;;4.36;68.09;97695.53;4877869;29;20401;-49
2021/04/30 04:54:28;;;;;;;11.15;7.20;;;;;;;4.33;67.91;97700.88;4878622;29;20067;-47
2021/04/30 04:56:53;;;;;;;11.68;7.38;;;;;;;4.34;68.15;97702.56;4878323;29;20029;-51
2021/04/30 04:59:18;;;;;;;12.20;8.35;;;;;;;4.26;68.86;97695.16;4878260;29;20545;-47
2021/04/30 05:01:44;;;;;;;13.07;7.85;;;;;;;4.41;68.79;97688.34;4865309;29;20076;-49
2021/04/30 05:04:09;;;;;;;11.45;7.10;;;;;;;4.52;68.34;97693.00;4859854;29;20565;-47
2021/04/30 05:06:34;;;;;;;12.50;7.60;;;;;;;4.48;68.63;97687.13;4859719;29;20486;-49
2021/04/30 05:09:00;;;;;;;11.02;6.90;;;;;;;4.73;68.13;97685.81;4859605;29;20021;-48
2021/04/30 05:11:25;;;;;;;10.95;7.20;;;;;;;4.85;67.72;97694.72;4862045;29;20029;-49
2021/04/30 05:13:51;;;;;;;11.75;7.03;;;;;;;4.95;67.52;97704.53;4864286;29;20057;-49
2021/04/30 05:16:16;;;;;;;12.18;7.30;;;;;;;4.86;68.28;97702.44;4880671;29;20029;-48
2021/04/30 05:18:42;;;;;;;13.20;8.10;;;;;;;4.85;68.34;97702.50;4881872;29;20077;-48
2021/04/30 05:21:07;;;;;;;13.25;8.10;;;;;;;4.89;68.38;97699.69;4881676;29;20029;-46
2021/04/30 05:23:35;;;;;;;12.65;7.40;;;;;;;4.87;68.68;97700.66;4881886;29;20025;-50
2021/04/30 05:26:00;;;;;;;12.32;7.88;;;;;;;4.92;67.87;97691.72;4865465;29;20028;-49
2021/04/30 05:28:26;;;;;;;12.30;7.13;;;;;;;5.00;68.26;97686.94;4879228;29;20497;-51
2021/04/30 05:30:51;;;;;;;12.98;7.93;;;;;;;5.07;67.05;97697.00;4861870;29;20041;-47
2021/04/30 05:33:16;;;;;;;13.75;7.93;;;;;;;5.14;67.24;97703.53;4863257;29;20033;-51
2021/04/30 05:35:42;;;;;;;13.45;7.97;;;;;;;5.08;67.89;97715.09;4863147;29;20426;-51
2021/04/30 05:38:07;;;;;;;13.85;8.13;;;;;;;5.07;67.62;97712.59;4863106;29;20034;-51
2021/04/30 05:40:33;;;;;;;12.88;8.48;;;;;;;5.18;67.72;97716.28;4862659;29;20033;-48
2021/04/30 05:42:58;;;;;;;12.05;7.85;;;;;;;5.33;67.73;97716.38;4875041;29;20116;-47
2021/04/30 05:45:24;;;;;;;14.25;8.77;;;;;;;5.51;66.27;97712.75;4865697;29;20033;-49
2021/04/30 05:47:49;;;;;;;13.75;7.88;;;;;;;5.76;64.64;97717.41;4862652;29;20041;-52
2021/04/30 05:50:15;;;;;;;15.07;8.43;;;;;;;5.90;65.06;97712.25;4862248;29;20042;-50
2021/04/30 05:52:40;;;;;;;14.43;8.27;;;;;;;5.97;64.33;97712.78;4862654;29;20428;-48
2021/04/30 05:55:06;;;;;;;17.52;8.48;;;;;;;5.99;64.90;97718.75;4862365;29;20029;-48
2021/04/30 05:57:32;;;;;;;15.15;8.88;;;;;;;6.04;64.88;97714.09;4863071;29;20405;-51
2021/04/30 05:59:57;;;;;;;16.83;8.93;;;;;;;6.12;64.84;97718.84;4877269;29;20497;-51
2021/04/30 06:02:23;;;;;;;12.63;8.90;;;;;;;6.45;64.45;97716.03;4880988;29;20044;-48
2021/04/30 06:04:48;;;;;;;14.52;8.88;;;;;;;6.68;62.75;97714.66;4881046;29;20426;-51
2021/04/30 06:07:13;;;;;;;14.30;9.30;;;;;;;6.74;60.95;97709.06;4881047;29;20532;-50
2021/04/30 06:09:39;;;;;;;13.32;8.88;;;;;;;6.72;61.05;97718.75;4881215;29;20029;-48
2021/04/30 06:12:04;;;;;;;15.15;9.68;;;;;;;6.85;60.73;97709.25;4880194;29;20040;-47
2021/04/30 06:14:30;;;;;;;14.63;9.02;;;;;;;7.02;61.11;97707.34;4880949;29;20025;-47
2021/04/30 06:16:59;;;;;;;14.43;9.63;;;;;;;7.02;62.57;97715.19;4880563;29;20032;-48
2021/04/30 06:19:24;;;;;;;14.10;9.07;;;;;;;7.14;62.19;97711.81;4880632;29;20029;-48
2021/04/30 06:21:50;;;;;;;14.75;9.38;;;;;;;7.22;61.24;97703.50;4880310;29;20029;-47
2021/04/30 06:24:16;;;;;;;12.95;8.65;;;;;;;7.35;61.19;97715.69;4881375;29;20068;-54
2021/04/30 06:26:41;;;;;;;15.88;10.05;;;;;;;7.37;60.47;97713.81;4880728;29;20032;-53
2021/04/30 06:29:08;;;;;;;17.35;10.15;;;;;;;7.46;59.85;97711.56;4880910;29;20089;-52
2021/04/30 06:31:34;;;;;;;13.75;9.30;;;;;;;7.54;60.37;97711.91;4880786;29;20052;-48
2021/04/30 06:34:00;;;;;;;13.88;9.25;;;;;;;7.58;59.99;97713.41;4881387;29;20153;-50
2021/04/30 06:36:25;;;;;;;13.30;8.93;;;;;;;7.62;61.06;97725.31;4880520;29;20033;-46
2021/04/30 06:38:50;;;;;;;14.32;9.90;;;;;;;7.70;59.00;97727.41;4880593;29;20359;-45
2021/04/30 06:41:16;;;;;;;15.73;9.25;;;;;;;7.86;58.16;97722.88;4880199;29;20036;-45
2021/04/30 06:43:41;;;;;;;14.20;9.00;;;;;;;7.91;58.27;97725.19;4880415;29;20033;-48
2021/04/30 06:46:07;;;;;;;14.73;9.68;;;;;;;7.81;58.45;97717.09;4880900;29;20036;-48
2021/04/30 06:48:33;;;;;;;15.63;9.32;;;;;;;7.79;58.28;97717.22;4880407;29;20195;-49
2021/04/30 06:50:58;;;;;;;15.23;9.45;;;;;;;7.89;59.18;97721.84;4880496;29;20041;-49
2021/04/30 06:53:24;;;;;;;13.02;8.95;;;;;;;7.83;55.92;97715.25;4880779;29;20029;-49
2021/04/30 06:55:50;;;;;;;13.73;9.15;;;;;;;7.83;55.81;97713.47;4880123;29;20017;-45
2021/04/30 06:58:15;;;;;;;14.55;8.35;;;;;;;8.20;55.17;97707.59;4880815;29;20033;-51
2021/04/30 07:00:41;;;;;;;14.40;9.60;;;;;;;8.13;55.26;97709.78;4880483;29;20039;-47
2021/04/30 07:03:06;;;;;;;15.27;10.45;;;;;;;7.99;54.55;97709.88;4881448;29;20032;-49
2021/04/30 07:05:32;;;;;;;14.25;8.63;;;;;;;8.24;54.24;97704.69;4881016;29;20045;-50
2021/04/30 07:08:01;;;;;;;14.10;9.63;;;;;;;8.43;53.63;97706.06;4881286;29;20028;-50
2021/04/30 07:10:27;;;;;;;15.50;8.88;;;;;;;8.50;53.38;97710.81;4880398;29;20392;-49
2021/04/30 07:12:52;;;;;;;15.90;9.77;;;;;;;8.62;53.21;97705.66;4879910;29;20116;-50
2021/04/30 07:15:18;;;;;;;14.32;9.43;;;;;;;8.92;52.33;97702.72;4879838;29;20021;-50
2021/04/30 07:17:44;;;;;;;14.30;9.77;;;;;;;9.20;52.05;97697.22;4879822;29;20740;-48
2021/04/30 07:20:09;;;;;;;15.52;10.35;;;;;;;9.22;51.06;97691.84;4879233;29;20032;-50
2021/04/30 07:22:35;;;;;;;15.35;9.45;;;;;;;9.24;50.62;97698.66;4879745;29;20120;-48
2021/04/30 07:25:00;;;;;;;14.50;9.80;;;;;;;9.63;49.74;97696.72;4881285;29;20021;-53
2021/04/30 07:27:26;;;;;;;15.00;9.50;;;;;;;9.65;48.54;97692.22;4881321;29;20036;-48
2021/04/30 07:29:51;;;;;;;15.05;9.60;;;;;;;9.33;48.83;97685.88;4880009;29;20040;-51
2021/04/30 07:32:16;;;;;;;15.40;10.20;;;;;;;8.94;49.58;97693.81;4880196;29;20032;-50
2021/04/30 07:34:42;;;;;;;14.18;9.73;;;;;;;9.01;49.38;97676.72;4879948;29;20076;-53
2021/04/30 07:37:07;;;;;;;13.88;9.45;;;;;;;9.31;49.31;97683.34;4881675;29;20397;-53
2021/04/30 07:39:33;;;;;;;13.57;9.25;;;;;;;9.68;48.96;97675.47;4880049;29;20064;-54
2021/04/30 07:41:59;;;;;;;14.57;9.18;;;;;;;9.85;48.41;97667.19;4879593;29;20037;-49
2021/04/30 07:44:24;;;;;;;12.48;9.13;;;;;;;9.79;47.87;97667.66;4880056;29;20025;-50
2021/04/30 07:46:50;;;;;;;14.45;9.63;;;;;;;9.96;47.71;97669.84;4880693;29;20051;-49
2021/04/30 07:49:15;;;;;;;14.07;9.60;;;;;;;9.59;47.42;97663.88;4880687;29;20025;-48
2021/04/30 07:51:40;;;;;;;13.40;9.07;;;;;;;10.01;47.60;97661.63;4879553;29;20037;-53
2021/04/30 07:54:06;;;;;;;14.90;10.00;;;;;;;10.15;47.98;97664.09;4880075;29;20048;-54
2021/04/30 07:56:31;;;;;;;14.73;9.82;;;;;;;10.40;48.03;97660.47;4881077;29;20033;-46
2021/04/30 07:58:57;;;;;;;15.05;9.52;;;;;;;10.47;46.70;97655.59;4881619;29;20033;-49
2021/04/30 08:01:22;;;;;;;13.68;9.63;;;;;;;10.45;47.32;97649.59;4879409;29;20028;-52
2021/04/30 08:03:47;;;;;;;15.63;9.98;;;;;;;10.66;46.91;97653.19;4879531;29;20441;-46
2021/04/30 08:06:13;;;;;;;15.73;10.85;;;;;;;11.02;46.55;97653.91;4880679;29;20532;-49
2021/04/30 08:08:40;;;;;;;14.40;9.35;;;;;;;10.85;46.46;97651.78;4879533;29;20029;-47
2021/04/30 08:11:06;;;;;;;13.55;9.45;;;;;;;11.08;46.02;97639.44;4879521;29;20029;-47
2021/04/30 08:13:32;;;;;;;13.05;9.27;;;;;;;10.76;45.83;97642.00;4879808;29;20036;-46
2021/04/30 08:15:57;;;;;;;16.60;10.23;;;;;;;10.62;46.63;97638.66;4879053;29;20296;-47
2021/04/30 08:18:22;;;;;;;13.60;9.45;;;;;;;10.78;47.08;97650.59;4878998;29;20468;-48
2021/04/30 08:20:48;;;;;;;15.43;10.73;;;;;;;10.98;44.34;97647.22;4878256;29;20032;-45
2021/04/30 08:23:14;;;;;;;15.15;10.05;;;;;;;11.23;44.31;97647.91;4878821;29;20031;-48
2021/04/30 08:25:39;;;;;;;14.40;10.25;;;;;;;11.05;44.70;97648.41;4878755;29;20025;-46
2021/04/30 08:28:05;;;;;;;16.10;9.80;;;;;;;11.60;44.78;97645.78;4878792;29;20041;-49
2021/04/30 08:30:30;;;;;;;15.80;10.50;;;;;;;11.67;45.37;97646.09;4878263;29;20021;-51
2021/04/30 08:32:56;;;;;;;13.30;9.82;;;;;;;11.93;43.61;97647.44;4878700;29;20037;-51
2021/04/30 08:35:22;;;;;;;15.43;9.98;;;;;;;11.71;43.80;97644.88;4878514;29;20073;-50
2021/04/30 08:37:47;;;;;;;15.63;10.45;;;;;;;11.59;43.58;97642.28;4878883;29;20025;-45
2021/04/30 08:40:13;;;;;;;16.25;10.60;;;;;;;11.70;42.89;97645.81;4878694;29;20059;-47
2021/04/30 08:42:39;;;;;;;15.57;10.68;;;;;;;11.53;43.76;97637.56;4879046;29;20021;-48
2021/04/30 08:45:07;;;;;;;15.73;11.07;;;;;;;11.36;44.61;97641.53;4878588;29;20032;-49
2021/04/30 08:47:36;;;;;;;14.93;10.02;;;;;;;11.56;44.57;97645.19;4878359;29;20404;-50
2021/04/30 08:50:02;;;;;;;15.15;10.13;;;;;;;11.45;43.90;97639.94;4862092;29;20041;-48
2021/04/30 08:52:28;;;;;;;15.15;9.85;;;;;;;11.13;44.19;97640.75;4878403;29;20025;-47
2021/04/30 08:54:54;;;;;;;15.02;9.38;;;;;;;11.25;45.29;97632.84;4878771;29;20500;-50
2021/04/30 08:57:25;;;;;;;16.65;10.27;;;;;;;11.16;45.39;97632.63;4862528;29;20029;-50
2021/04/30 08:59:55;;;;;;;14.48;9.60;;;;;;;11.06;46.01;97628.25;4862717;29;20446;-48
2021/04/30 09:02:20;;;;;;;15.85;8.95;;;;;;;11.16;45.57;97629.19;4878661;29;20032;-47
2021/04/30 09:04:46;;;;;;;15.02;9.93;;;;;;;11.15;45.40;97627.53;4880544;29;20162;-48
2021/04/30 09:07:13;;;;;;;16.40;10.18;;;;;;;11.13;45.58;97626.81;4879391;29;20504;-50
2021/04/30 09:09:39;;;;;;;15.80;10.73;;;;;;;11.13;45.49;97627.63;4878259;29;20238;-52
2021/04/30 09:12:14;;;;;;;14.68;10.60;;;;;;;10.64;45.54;97628.06;4861294;29;20033;-51
2021/04/30 09:14:39;;;;;;;15.57;9.75;;;;;;;10.71;45.98;97624.00;4861528;29;20021;-49
2021/04/30 09:17:05;;;;;;;15.23;10.10;;;;;;;10.81;46.34;97629.38;4878848;29;20029;-47
2021/04/30 09:19:30;;;;;;;14.70;10.07;;;;;;;10.69;45.78;97629.34;4878519;29;20393;-46
2021/04/30 09:22:06;;;;;;;15.00;9.13;;;;;;;10.75;44.92;97625.41;4878294;29;20060;-46
2021/04/30 09:24:32;;;;;;;15.40;9.68;;;;;;;10.73;45.73;97624.69;4864993;29;20495;-50
2021/04/30 09:26:57;;;;;;;14.10;9.30;;;;;;;10.68;45.85;97611.13;4879985;29;20048;-49
2021/04/30 09:29:23;;;;;;;15.80;9.50;;;;;;;10.71;46.28;97617.91;4879977;29;20037;-46
2021/04/30 09:31:49;;;;;;;15.25;10.25;;;;;;;10.78;45.80;97622.56;4879221;29;20029;-46
2021/04/30 09:34:14;;;;;;;14.52;9.43;;;;;;;10.82;45.74;97623.97;4880315;29;20036;-46
2021/04/30 09:37:02;;;;;;;14.15;9.95;;;;;;;10.92;45.67;97629.34;4878445;29;20029;-50
2021/04/30 09:39:28;;;;;;;14.98;9.90;;;;;;;10.86;45.38;97627.19;4877743;29;20077;-50
2021/04/30 09:42:09;;;;;;;15.38;10.13;;;;;;;10.83;45.68;97632.69;4878144;29;20060;-47
2021/04/30 09:44:38;;;;;;;14.93;9.60;;;;;;;10.95;45.97;97631.72;4878516;29;20049;-50
2021/04/30 09:47:16;;;;;;;16.02;9.88;;;;;;;10.99;45.04;97637.56;4878059;29;20132;-46
2021/04/30 09:49:42;;;;;;;14.80;9.38;;;;;;;11.20;44.69;97635.84;4877329;29;20157;-43
2021/04/30 09:52:08;;;;;;;16.80;10.05;;;;;;;11.18;44.64;97632.50;4877551;29;20405;-44
2021/04/30 09:54:34;;;;;;;14.95;9.80;;;;;;;11.10;43.22;97629.66;4876519;29;20513;-45
2021/04/30 09:57:04;;;;;;;16.00;9.75;;;;;;;11.14;43.55;97613.53;4879331;29;20037;-44
2021/04/30 09:59:29;;;;;;;13.20;9.15;;;;;;;11.36;42.78;97619.72;4880795;29;20029;-45
2021/04/30 10:02:05;;;;;;;13.85;9.18;;;;;;;11.50;42.14;97606.28;4880737;29;20041;-48
2021/04/30 10:04:33;;;;;;;12.85;8.40;;;;;;;11.83;42.02;97612.34;4880885;29;20057;-46
2021/04/30 10:06:59;;;;;;;13.02;8.93;;;;;;;12.21;40.30;97598.63;4880907;29;20058;-46
2021/04/30 10:09:26;;;;;;;14.32;9.60;;;;;;;12.92;40.29;97587.28;4880823;29;20033;-48
2021/04/30 10:11:51;;;;;;;14.30;9.35;;;;;;;13.66;38.35;97578.94;4881357;29;20028;-49
2021/04/30 10:14:16;;;;;;;16.80;8.52;;;;;;;13.97;38.41;97569.03;4884983;29;20036;-54
2021/04/30 10:16:42;;;;;;;15.25;10.35;;;;;;;13.85;38.05;97573.66;4886911;29;20021;-49
2021/04/30 10:19:08;;;;;;;15.27;10.27;;;;;;;14.23;36.90;97564.00;4855159;29;20029;-49
2021/04/30 10:21:33;;;;;;;14.25;10.52;;;;;;;14.57;36.63;97551.13;4886013;29;20029;-51
2021/04/30 10:23:59;;;;;;;12.75;9.48;;;;;;;14.27;37.26;97553.97;4850506;29;20029;-47
2021/04/30 10:26:24;;;;;;;15.45;9.43;;;;;;;14.41;37.28;97559.63;4881001;29;20041;-49
2021/04/30 10:28:53;;;;;;;13.73;9.13;;;;;;;13.77;36.60;97565.63;4881281;29;20046;-50
2021/04/30 10:31:29;;;;;;;14.82;9.73;;;;;;;13.31;36.37;97577.69;4864073;29;20032;-46
2021/04/30 10:33:58;;;;;;;13.65;9.40;;;;;;;13.00;37.45;97569.84;4848680;29;20115;-48
2021/04/30 10:36:29;;;;;;;13.05;9.60;;;;;;;13.06;38.54;97569.31;4880513;29;20080;-47
2021/04/30 10:38:55;;;;;;;14.00;9.48;;;;;;;12.65;38.73;97572.94;4880374;29;20037;-47
2021/04/30 10:41:31;;;;;;;17.23;9.98;;;;;;;12.69;39.27;97573.50;4880130;29;20025;-45
2021/04/30 10:44:13;;;;;;;14.25;9.98;;;;;;;12.30;39.82;97554.97;4879969;29;20389;-46
2021/04/30 10:46:39;;;;;;;;;;;;;;;13.38;37.68;97564.78;4880777;29;20033;-46
2021/04/30 10:49:04;;;;;;;14.07;9.70;;;;;;;13.63;37.35;97566.06;4880208;29;19912;-47
2021/04/30 10:51:33;;;;;;;14.80;9.68;;;;;;;13.56;37.10;97565.78;4879892;29;20041;-51
2021/04/30 10:54:23;;;;;;;15.00;9.75;;;;;;;13.62;36.96;97562.56;4880096;29;20556;-46
2021/04/30 10:57:03;;;;;;;13.85;9.20;;;;;;;13.68;37.00;97566.47;4880397;29;20029;-46
2021/04/30 10:59:40;;;;;;;15.60;9.57;;;;;;;13.48;36.71;97573.53;4880111;29;20029;-46
2021/04/30 11:02:20;;;;;;;14.38;9.50;;;;;;;13.59;36.08;97556.75;4851729;29;20036;-51
2021/04/30 11:05:03;;;;;;;12.90;8.95;;;;;;;13.81;35.91;97555.63;4880630;29;20500;-48
2021/04/30 11:07:50;;;;;;;15.93;9.40;;;;;;;13.29;36.75;97555.94;4879783;29;20441;-47
2021/04/30 11:10:22;;;;;;;17.05;9.95;;;;;;;13.40;36.72;97542.63;4879719;29;20032;-51
2021/04/30 11:12:54;;;;;;;15.43;8.73;;;;;;;14.29;35.77;97530.94;4879969;29;20112;-48
2021/04/30 11:15:19;;;;;;;12.73;8.77;;;;;;;14.66;35.42;97536.22;4880398;29;20033;-49
2021/04/30 11:18:03;;;;;;;13.68;8.90;;;;;;;14.92;35.07;97537.16;4879954;29;20485;-47
2021/04/30 11:20:30;;;;;;;14.30;9.63;;;;;;;14.74;34.04;97540.78;4879331;29;20078;-48
2021/04/30 11:23:14;;;;;;;14.77;9.35;;;;;;;14.68;34.25;97540.38;4879711;29;20061;-48
2021/04/30 11:25:54;;;;;;;16.63;10.30;;;;;;;15.49;33.35;97546.66;4879548;29;20036;-46
2021/04/30 11:28:20;;;;;;;15.65;10.38;;;;;;;15.65;33.57;97541.47;4879521;29;20091;-47
2021/04/30 11:31:27;;;;;;;13.73;8.98;;;;;;;16.04;33.26;97534.03;4879348;29;20433;-47
2021/04/30 11:34:19;;;;;;;15.57;10.15;;;;;;;15.98;32.97;97533.81;4867146;29;20040;-47
2021/04/30 11:36:48;;;;;;;13.40;9.20;;;;;;;16.25;33.18;97538.94;4880007;29;20040;-50
2021/04/30 11:39:47;;;;;;;15.57;9.30;;;;;;;16.61;31.24;97531.66;4879338;29;20096;-47
2021/04/30 11:42:13;;;;;;;12.57;9.18;;;;;;;16.61;31.29;97530.84;4838553;29;20044;-48
2021/04/30 11:44:39;;;;;;;14.30;9.68;;;;;;;15.82;31.05;97523.97;4862382;29;20031;-46
2021/04/30 11:47:05;;;;;;;15.43;10.05;;;;;;;16.02;32.25;97538.66;4879280;29;20119;-44
2021/04/30 11:49:35;;;;;;;16.02;10.05;;;;;;;15.26;31.87;97533.88;4878981;29;20041;-45
2021/04/30 11:52:01;;;;;;;13.95;9.35;;;;;;;14.99;32.75;97532.13;4878996;29;20442;-43
2021/04/30 11:54:31;;;;;;;13.95;9.60;;;;;;;15.12;33.43;97537.06;4879017;29;20124;-45
2021/04/30 11:57:06;;;;;;;12.88;8.95;;;;;;;15.24;33.85;97535.84;4879034;29;20037;-49
2021/04/30 11:59:31;;;;;;;12.85;9.25;;;;;;;15.19;33.83;97527.53;4878812;29;20025;-48
2021/04/30 12:02:06;;;;;;;12.80;9.15;;;;;;;15.15;33.81;97542.03;4879011;29;20096;-48
2021/04/30 12:04:39;;;;;;;13.02;8.65;;;;;;;14.36;34.11;97551.31;4879299;29;20492;-45
2021/04/30 12:07:05;;;;;;;13.75;9.18;;;;;;;14.21;34.16;97550.97;4879395;29;20108;-56
2021/04/30 12:09:31;;;;;;;13.63;7.93;;;;;;;14.25;35.31;97548.88;4878730;29;20486;-50
2021/04/30 12:12:18;;;;;;;13.85;9.32;;;;;;;14.11;35.36;97541.41;4878344;29;20112;-54
2021/04/30 12:14:50;;;;;;;14.63;9.07;;;;;;;13.80;35.23;97546.03;4866315;29;20041;-52
2021/04/30 12:17:38;;;;;;;13.50;8.95;;;;;;;13.56;34.86;97546.47;4878656;29;20510;-53
2021/04/30 12:20:07;;;;;;;14.32;8.93;;;;;;;13.29;35.14;97550.66;4878126;29;20547;-51
2021/04/30 12:22:33;;;;;;;14.40;8.43;;;;;;;12.99;36.06;97538.41;4878530;29;20036;-54
2021/04/30 12:25:36;;;;;;;13.68;8.48;;;;;;;12.90;36.40;97545.31;4878513;29;20108;-59
2021/04/30 12:28:21;;;;;;;13.55;8.27;;;;;;;12.87;36.61;97545.59;4878826;29;20033;-57
2021/04/30 12:30:48;;;;;;;13.50;9.00;;;;;;;12.29;37.27;97546.25;4878138;29;20089;-53
2021/04/30 12:33:31;;;;;;;15.05;8.88;;;;;;;12.14;37.89;97537.03;4878671;29;20426;-53
2021/04/30 12:36:01;;;;;;;14.32;9.43;;;;;;;12.05;39.44;97546.53;4878695;29;20025;-52
2021/04/30 12:38:28;;;;;;;17.73;10.75;;;;;;;11.95;39.41;97545.66;4878442;29;20025;-49
2021/04/30 12:40:53;;;;;;;14.65;9.85;;;;;;;11.83;39.35;97546.66;4878025;29;20061;-53
2021/04/30 12:43:26;;;;;;;14.68;9.05;;;;;;;11.69;40.79;97541.72;4878320;29;20112;-49
2021/04/30 12:45:52;;;;;;;15.13;9.13;;;;;;;11.66;40.22;97558.56;4878288;29;20021;-54
2021/04/30 12:48:17;;;;;;;14.45;9.10;;;;;;;11.62;40.43;97554.53;4878351;29;20093;-52
2021/04/30 12:50:43;;;;;;;16.40;9.45;;;;;;;11.43;41.14;97557.84;4877958;29;20040;-49
2021/04/30 12:53:08;;;;;;;14.55;9.23;;;;;;;11.58;40.96;97555.75;4861838;29;20107;-52
2021/04/30 12:55:40;;;;;;;14.93;10.07;;;;;;;11.52;41.51;97562.31;4861670;29;20429;-56
2021/04/30 12:58:08;;;;;;;14.48;9.18;;;;;;;11.62;41.48;97555.34;4878204;29;20021;-53
2021/04/30 13:01:05;;;;;;;16.67;9.88;;;;;;;11.51;42.48;97550.16;4878049;29;20029;-46
2021/04/30 13:03:44;;;;;;;17.50;10.43;;;;;;;11.38;42.20;97552.97;4862942;29;20088;-50
2021/04/30 13:06:11;;;;;;;18.55;10.48;;;;;;;11.38;42.71;97554.75;4877994;29;20021;-48
2021/04/30 13:08:38;;;;;;;18.60;10.60;;;;;;;11.40;43.01;97550.22;4877976;29;20037;-54
2021/04/30 13:11:14;;;;;;;16.85;10.88;;;;;;;11.45;42.89;97540.16;4877817;29;20033;-54
2021/04/30 13:14:15;;;;;;;17.70;11.23;;;;;;;11.74;42.17;97544.81;4878014;29;20055;-57
2021/04/30 13:16:44;;;;;;;20.27;10.90;;;;;;;11.55;42.93;97545.50;4802520;29;20061;-49
2021/04/30 13:19:14;;;;;;;18.50;11.00;;;;;;;11.84;43.06;97543.09;4864120;29;20049;-53
2021/04/30 13:21:41;;;;;;;16.05;9.70;;;;;;;11.82;46.02;97558.13;4878214;29;20385;-55
2021/04/30 13:24:29;;;;;;;15.25;8.77;;;;;;;11.28;44.84;97559.09;4877805;29;20033;-57
2021/04/30 13:27:09;;;;;;;15.98;8.02;;;;;;;10.98;46.55;97568.50;4867840;29;20037;-49
2021/04/30 13:29:39;;;;;;;15.45;7.82;;;;;;;10.63;45.61;97564.28;4877820;29;20084;-55
2021/04/30 13:32:08;;;;;;;12.68;6.93;;;;;;;10.73;44.03;97569.63;4879870;29;20029;-51
2021/04/30 13:34:37;;;;;;;12.93;7.20;;;;;;;10.49;44.65;97569.75;4881809;29;20104;-53
2021/04/30 13:37:08;;;;;;;12.98;6.53;;;;;;;10.41;45.54;97564.28;4881457;29;20024;-57
2021/04/30 13:39:35;;;;;;;12.43;6.35;;;;;;;10.50;46.93;97571.44;4881620;29;20445;-54
2021/04/30 13:42:01;;;;;;;13.00;6.90;;;;;;;10.49;47.34;97577.63;4881260;29;20036;-57
2021/04/30 13:44:26;;;;;;;12.55;7.13;;;;;;;10.31;49.65;97573.81;4881304;29;20389;-55
2021/04/30 13:46:56;;;;;;;15.70;8.05;;;;;;;10.10;51.56;97582.34;4881324;29;20093;-57
2021/04/30 13:49:51;;;;;;;13.85;7.75;;;;;;;9.93;54.18;97581.00;4881219;29;20165;-55
2021/04/30 13:52:16;;;;;;;13.75;7.88;;;;;;;9.88;55.76;97582.31;4881276;29;20481;-52
2021/04/30 13:54:42;;;;;;;14.70;8.48;;;;;;;9.49;56.68;97587.78;4881180;29;20169;-58
2021/04/30 13:57:07;;;;;;;14.32;8.48;;;;;;;9.31;59.42;97594.38;4881172;29;20029;-53
2021/04/30 13:59:37;;;;;;;13.77;7.32;;;;;;;9.35;58.90;97597.59;4881055;29;20071;-48
2021/04/30 14:02:03;;;;;;;14.18;8.32;;;;;;;9.35;58.80;97595.00;4880830;29;20101;-55
2021/04/30 14:04:29;;;;;;;14.05;8.07;;;;;;;9.24;60.94;97594.00;4881146;29;20050;-53
2021/04/30 14:06:54;;;;;;;14.60;8.35;;;;;;;9.36;60.91;97591.41;4881104;29;20493;-52
2021/04/30 14:09:20;;;;;;;13.70;8.05;;;;;;;9.11;59.81;97590.59;4880875;29;20036;-49
2021/04/30 14:11:45;;;;;;;14.50;8.43;;;;;;;9.18;62.21;97578.72;4880526;29;20033;-53
2021/04/30 14:14:11;;;;;;;15.82;8.57;;;;;;;9.27;61.51;97572.84;4880900;29;20025;-53
2021/04/30 14:16:36;;;;;;;16.00;9.07;;;;;;;9.31;60.95;97580.47;4880915;29;20311;-56
2021/04/30 14:19:02;;;;;;;16.10;8.05;;;;;;;9.32;61.55;97585.56;4880752;29;20081;-57
2021/04/30 14:21:27;;;;;;;16.08;8.95;;;;;;;9.03;63.74;97583.31;4880961;29;20032;-59
2021/04/30 14:23:53;;;;;;;16.30;8.98;;;;;;;8.94;64.09;97581.34;4881080;29;20039;-58
2021/04/30 14:26:19;;;;;;;13.85;7.97;;;;;;;8.89;64.36;97596.53;4880812;29;20048;-56
2021/04/30 14:28:44;;;;;;;13.48;7.70;;;;;;;8.76;66.78;97599.19;4880842;29;20485;-53
2021/04/30 14:31:10;;;;;;;14.50;8.27;;;;;;;8.70;66.53;97596.16;4880408;29;20052;-57
2021/04/30 14:33:35;;;;;;;13.88;7.85;;;;;;;8.62;67.66;97590.66;4880540;29;20086;-48
2021/04/30 14:36:00;;;;;;;14.93;7.85;;;;;;;8.55;66.06;97595.47;4880388;29;20025;-49
2021/04/30 14:38:26;;;;;;;13.60;7.72;;;;;;;8.41;66.85;97582.53;4880442;29;20401;-52
2021/04/30 14:40:51;;;;;;;13.70;7.60;;;;;;;8.46;68.44;97580.41;4880115;29;20053;-55
2021/04/30 14:43:16;;;;;;;14.82;8.00;;;;;;;8.38;69.39;97588.81;4880183;29;20389;-49
2021/04/30 14:45:42;;;;;;;15.85;8.15;;;;;;;8.36;68.47;97589.81;4880183;29;20024;-57
2021/04/30 14:48:08;;;;;;;14.27;8.07;;;;;;;8.42;67.73;97594.66;4880309;29;20037;-52
2021/04/30 14:50:34;;;;;;;14.00;8.43;;;;;;;8.23;68.02;97601.13;4879700;29;20100;-55
2021/04/30 14:53:00;;;;;;;15.90;8.50;;;;;;;8.24;68.58;97600.16;4880081;29;20039;-48
2021/04/30 14:55:26;;;;;;;19.98;9.70;;;;;;;8.07;71.28;97583.03;4880076;29;20021;-46
2021/04/30 14:57:51;;;;;;;14.85;8.30;;;;;;;8.48;68.92;97595.06;4879987;29;20029;-45
2021/04/30 15:00:17;;;;;;;14.35;9.18;;;;;;;8.31;70.01;97593.59;4879735;29;20036;-46
2021/04/30 15:02:43;;;;;;;16.88;8.18;;;;;;;8.42;68.60;97592.03;4877192;29;20515;-48
2021/04/30 15:05:09;;;;;;;16.83;8.98;;;;;;;8.29;69.19;97590.25;4861439;29;20030;-50
2021/04/30 15:07:34;;;;;;;15.07;8.50;;;;;;;8.11;68.03;97582.84;4871238;29;20442;-50
2021/04/30 15:10:00;;;;;;;15.52;8.77;;;;;;;8.07;68.20;97584.81;4872162;29;20037;-56
2021/04/30 15:12:25;;;;;;;17.50;9.13;;;;;;;8.09;69.32;97593.41;4879718;29;20028;-56
2021/04/30 15:14:51;;;;;;;17.42;9.05;;;;;;;8.20;69.40;97597.88;4878714;29;20077;-48
2021/04/30 15:17:16;;;;;;;17.73;9.30;;;;;;;7.98;68.82;97591.53;4863201;29;20481;-52
2021/04/30 15:19:42;;;;;;;16.38;9.10;;;;;;;8.00;68.34;97588.78;4878330;29;20037;-51
2021/04/30 15:22:07;;;;;;;16.27;9.30;;;;;;;8.20;68.69;97590.88;4863210;29;20048;-49
2021/04/30 15:24:32;;;;;;;20.75;10.52;;;;;;;8.12;69.81;97593.19;4861003;29;20041;-48
2021/04/30 15:26:58;;;;;;;19.23;10.50;;;;;;;8.21;71.14;97592.53;4860967;29;20037;-52
2021/04/30 15:29:23;;;;;;;17.38;9.52;;;;;;;8.21;70.17;97589.94;4860869;29;20033;-52
2021/04/30 15:31:49;;;;;;;18.60;9.90;;;;;;;8.19;70.06;97594.44;4860695;29;20077;-51
2021/04/30 15:34:14;;;;;;;16.38;9.48;;;;;;;8.05;70.23;97597.13;4866663;29;20040;-49
2021/04/30 15:36:40;;;;;;;17.05;9.25;;;;;;;8.20;68.86;97590.88;4861080;29;20048;-53
2021/04/30 15:39:05;;;;;;;19.05;9.88;;;;;;;8.37;68.40;97591.50;4860651;29;20398;-55
2021/04/30 15:41:31;;;;;;;16.55;10.05;;;;;;;8.29;71.19;97587.66;4860469;29;20033;-54
2021/04/30 15:43:56;;;;;;;18.40;9.80;;;;;;;7.95;69.68;97591.72;4860705;29;20026;-49
2021/04/30 15:46:22;;;;;;;17.50;9.82;;;;;;;8.10;70.50;97589.84;4860185;29;20287;-48
2021/04/30 15:48:48;;;;;;;18.40;10.48;;;;;;;8.00;70.30;97583.56;4860660;29;20041;-46
2021/04/30 15:51:13;;;;;;;17.02;9.77;;;;;;;8.06;70.80;97580.53;4873277;29;20036;-47
2021/04/30 15:53:39;;;;;;;18.48;10.63;;;;;;;8.13;70.25;97578.34;4878636;29;20037;-53
2021/04/30 15:56:04;;;;;;;18.70;10.63;;;;;;;8.05;71.51;97586.69;4878954;29;20040;-55
2021/04/30 15:58:32;;;;;;;18.30;10.50;;;;;;;8.03;69.65;97584.19;4879004;29;20043;-55
2021/04/30 16:00:57;;;;;;;20.75;11.30;;;;;;;7.98;71.14;97585.44;4878629;29;20096;-55
2021/04/30 16:03:23;;;;;;;19.45;11.02;;;;;;;7.93;72.40;97587.53;4874487;29;20426;-55
2021/04/30 16:05:48;;;;;;;18.38;10.95;;;;;;;7.87;73.06;97596.59;4862652;29;20025;-51
2021/04/30 16:08:14;;;;;;;19.63;11.30;;;;;;;7.99;73.09;97581.91;4878914;29;20106;-50
2021/04/30 16:10:39;;;;;;;19.35;11.50;;;;;;;7.99;71.77;97571.47;4878124;29;20033;-50
2021/04/30 16:13:05;;;;;;;19.98;11.32;;;;;;;8.13;70.73;97578.34;4878862;29;20032;-51
2021/04/30 16:15:30;;;;;;;20.88;11.90;;;;;;;8.17;70.45;97570.19;4878657;29;20031;-54
2021/04/30 16:17:56;;;;;;;21.27;11.93;;;;;;;8.12;71.97;97561.84;4878638;29;20061;-56
2021/04/30 16:20:21;;;;;;;20.20;11.90;;;;;;;8.10;71.66;97561.09;4878485;29;20025;-51